Time;durP1;ratioP1;P1;durP2;ratioP2;P2;SDS_P1;SDS_P2;PMS_P1;PMS_P2;Temp;Humidity;BMP_temperature;BMP_pressure;BME280_temperature;BME280_humidity;BME280_pressure;Samples;Min_cycle;Max_cycle;Signal;HPM_P1;HPM_P2
2021/03/27 00:01:08;;;;;;;38.22;19.88;;;;;;;4.29;58.85;100591.56;5030810;28;20021;-38
2021/03/27 00:03:56;;;;;;;39.28;19.25;;;;;;;4.25;59.58;100591.03;5032043;28;20025;-38
2021/03/27 00:06:42;;;;;;;42.08;18.45;;;;;;;4.40;59.21;100593.19;5047332;28;20469;-37
2021/03/27 00:09:27;;;;;;;35.53;18.45;;;;;;;4.12;59.53;100595.75;5046941;28;20068;-37
2021/03/27 00:12:07;;;;;;;41.55;19.52;;;;;;;4.15;59.82;100598.13;5050438;28;20033;-38
2021/03/27 00:14:38;;;;;;;41.30;19.10;;;;;;;4.55;58.85;100585.66;5050576;28;20040;-39
2021/03/27 00:17:06;;;;;;;35.25;18.02;;;;;;;4.49;58.96;100587.06;5050646;28;20103;-37
2021/03/27 00:19:36;;;;;;;35.90;17.63;;;;;;;4.29;59.78;100591.56;5033478;28;20028;-37
2021/03/27 00:22:06;;;;;;;38.30;17.95;;;;;;;4.24;59.38;100588.53;5052131;28;20024;-38
2021/03/27 00:24:54;;;;;;;41.97;19.60;;;;;;;4.15;59.59;100594.63;5050958;28;20553;-37
2021/03/27 00:27:22;;;;;;;39.78;17.90;;;;;;;3.87;61.15;100591.91;5052183;28;20452;-37
2021/03/27 00:29:50;;;;;;;39.00;18.70;;;;;;;3.97;60.67;100586.63;5034459;28;20025;-37
2021/03/27 00:32:18;;;;;;;36.97;18.45;;;;;;;4.01;59.81;100588.81;5046558;28;20025;-37
2021/03/27 00:34:47;;;;;;;41.25;19.10;;;;;;;3.75;61.09;100583.31;5051012;28;20025;-37
2021/03/27 00:37:14;;;;;;;43.53;21.38;;;;;;;3.72;60.84;100584.41;5050773;28;20044;-37
2021/03/27 00:39:45;;;;;;;40.53;18.63;;;;;;;3.97;60.25;100584.00;5034377;28;20033;-36
2021/03/27 00:42:17;;;;;;;45.10;19.50;;;;;;;3.72;60.36;100588.84;5050770;28;20029;-37
2021/03/27 00:44:52;;;;;;;49.70;19.80;;;;;;;3.40;62.28;100581.19;5050684;28;20025;-37
2021/03/27 00:47:20;;;;;;;47.58;21.98;;;;;;;3.56;62.09;100580.66;5050373;28;20025;-37
2021/03/27 00:50:00;;;;;;;44.55;21.17;;;;;;;3.56;62.77;100578.88;5034261;28;20457;-37
2021/03/27 00:52:26;;;;;;;51.47;24.47;;;;;;;3.65;61.77;100578.03;5050518;28;20460;-37
2021/03/27 00:55:14;;;;;;;47.95;23.10;;;;;;;3.63;62.79;100585.22;5034032;28;20114;-37
2021/03/27 00:57:41;;;;;;;50.65;23.85;;;;;;;3.34;62.24;100577.31;5050857;28;20017;-36
2021/03/27 01:00:15;;;;;;;58.70;25.77;;;;;;;3.45;62.73;100577.19;5051632;28;20025;-37
2021/03/27 01:02:45;;;;;;;51.60;23.50;;;;;;;3.38;62.00;100583.97;5051794;28;20043;-36
2021/03/27 01:05:12;;;;;;;47.58;22.00;;;;;;;3.29;62.71;100579.50;5033805;28;20060;-36
2021/03/27 01:07:37;;;;;;;45.47;21.42;;;;;;;3.38;62.58;100581.31;5033332;28;20056;-38
2021/03/27 01:10:31;;;;;;;45.63;21.17;;;;;;;3.42;61.83;100574.81;5030604;28;20057;-38
2021/03/27 01:12:57;;;;;;;42.80;19.85;;;;;;;3.19;62.73;100571.59;5031515;28;20514;-38
2021/03/27 01:15:32;;;;;;;48.60;20.77;;;;;;;3.30;61.99;100574.13;5013741;28;20108;-37
2021/03/27 01:18:00;;;;;;;43.47;19.73;;;;;;;3.13;62.79;100578.22;5030287;28;20037;-36
2021/03/27 01:20:31;;;;;;;41.10;19.80;;;;;;;3.06;64.02;100585.00;5013973;28;20025;-37
2021/03/27 01:22:56;;;;;;;48.75;21.42;;;;;;;3.14;63.54;100589.56;5029941;28;20555;-37
2021/03/27 01:25:24;;;;;;;39.95;20.10;;;;;;;3.30;63.40;100581.19;5031581;28;20072;-38
2021/03/27 01:28:08;;;;;;;45.53;20.65;;;;;;;3.28;63.76;100583.13;5030033;28;20033;-37
2021/03/27 01:30:59;;;;;;;47.10;21.38;;;;;;;3.34;63.68;100582.56;5029853;28;20469;-37
2021/03/27 01:33:36;;;;;;;43.47;21.70;;;;;;;3.32;63.11;100587.13;5029835;28;20108;-37
2021/03/27 01:36:10;;;;;;;46.40;21.52;;;;;;;3.22;63.22;100581.88;5014103;28;20030;-38
2021/03/27 01:38:36;;;;;;;42.08;20.90;;;;;;;3.14;63.63;100586.94;5029912;28;20234;-37
2021/03/27 01:41:07;;;;;;;50.17;21.17;;;;;;;3.20;62.23;100591.69;5030712;28;20501;-37
2021/03/27 01:43:34;;;;;;;48.90;21.80;;;;;;;3.37;62.23;100587.56;5030976;28;20078;-37
2021/03/27 01:46:05;;;;;;;46.47;22.45;;;;;;;3.22;62.36;100583.63;5031080;28;20025;-40
2021/03/27 01:48:37;;;;;;;47.65;21.73;;;;;;;3.34;62.18;100590.47;5030837;28;20029;-37
2021/03/27 01:51:18;;;;;;;46.80;22.25;;;;;;;3.38;62.60;100591.84;5031007;28;20432;-37
2021/03/27 01:53:52;;;;;;;48.45;22.05;;;;;;;3.39;62.19;100597.94;5029431;28;20127;-37
2021/03/27 01:56:52;;;;;;;43.22;21.17;;;;;;;3.28;62.61;100594.47;5029561;28;20025;-37
2021/03/27 01:59:24;;;;;;;49.30;21.88;;;;;;;3.32;62.23;100593.22;5030454;28;20025;-38
2021/03/27 02:01:52;;;;;;;48.17;22.40;;;;;;;3.47;62.60;100595.47;5013563;28;20025;-38
2021/03/27 02:04:24;;;;;;;47.50;21.80;;;;;;;3.23;63.47;100596.66;5029282;28;20029;-37
2021/03/27 02:06:56;;;;;;;44.17;19.98;;;;;;;3.34;63.58;100601.00;5012767;28;20537;-38
2021/03/27 02:09:31;;;;;;;44.70;19.92;;;;;;;3.32;62.54;100602.94;5030735;28;20200;-37
2021/03/27 02:12:32;;;;;;;42.47;20.73;;;;;;;3.39;64.09;100603.19;5047394;28;20021;-37
2021/03/27 02:15:00;;;;;;;47.83;21.25;;;;;;;3.31;63.56;100596.00;5049248;28;20028;-38
2021/03/27 02:17:50;;;;;;;46.60;21.27;;;;;;;3.06;64.93;100597.31;5032752;28;20366;-38
2021/03/27 02:20:30;;;;;;;44.45;21.10;;;;;;;3.18;64.38;100612.03;5048859;28;20021;-38
2021/03/27 02:23:13;;;;;;;47.20;20.73;;;;;;;3.12;63.75;100608.16;5049525;28;20427;-37
2021/03/27 02:25:58;;;;;;;45.92;21.13;;;;;;;3.16;63.61;100621.00;5035021;28;20033;-37
2021/03/27 02:29:05;;;;;;;44.50;21.42;;;;;;;3.08;63.17;100617.25;5049369;28;20024;-37
2021/03/27 02:31:40;;;;;;;47.08;21.48;;;;;;;2.98;64.70;100619.03;5050630;28;20029;-37
2021/03/27 02:34:21;;;;;;;43.15;21.33;;;;;;;3.06;64.19;100616.56;5050641;28;20548;-37
2021/03/27 02:36:46;;;;;;;44.28;21.65;;;;;;;2.91;64.02;100621.38;5050276;28;20028;-37
2021/03/27 02:39:50;;;;;;;47.30;20.88;;;;;;;2.89;64.34;100614.56;5050555;28;20031;-38
2021/03/27 02:42:47;;;;;;;44.45;20.33;;;;;;;2.59;64.70;100578.59;5038779;28;20037;-38
2021/03/27 02:45:18;;;;;;;41.17;19.50;;;;;;;2.80;65.15;100620.59;5053256;28;20118;-38
2021/03/27 02:47:53;;;;;;;44.00;20.77;;;;;;;2.91;64.16;100623.13;5053060;28;20425;-37
2021/03/27 02:50:33;;;;;;;41.05;20.80;;;;;;;2.83;64.25;100604.56;5052742;28;20063;-38
2021/03/27 02:53:22;;;;;;;42.38;19.38;;;;;;;2.45;64.29;100621.81;5037887;28;20028;-38
2021/03/27 02:56:13;;;;;;;38.47;19.75;;;;;;;2.41;65.36;100623.84;5052878;28;20025;-37
2021/03/27 02:59:02;;;;;;;;;;;;;;;2.37;65.53;100625.09;5051652;28;20115;-38
2021/03/27 03:01:55;;;;;;;66.97;28.92;;;;;;;2.53;65.28;100616.72;5053896;28;19956;-38
2021/03/27 03:04:26;;;;;;;58.75;25.77;;;;;;;2.69;64.15;100621.53;5053814;28;20044;-37
2021/03/27 03:06:56;;;;;;;42.65;19.60;;;;;;;2.72;63.76;100627.38;5053573;28;20098;-38
2021/03/27 03:09:40;;;;;;;42.15;19.27;;;;;;;2.77;63.87;100626.13;5035610;28;20028;-37
2021/03/27 03:12:29;;;;;;;41.35;19.13;;;;;;;2.61;64.21;100627.44;5053816;28;20381;-37
2021/03/27 03:15:19;;;;;;;49.40;20.80;;;;;;;2.92;64.07;100635.34;5037273;28;20017;-36
2021/03/27 03:18:10;;;;;;;47.92;20.52;;;;;;;3.02;63.87;100638.00;5053504;28;20036;-38
2021/03/27 03:20:57;;;;;;;39.83;19.75;;;;;;;2.91;64.01;100644.19;5043326;28;20036;-36
2021/03/27 03:23:28;;;;;;;37.42;18.35;;;;;;;2.94;64.05;100641.28;5032079;28;20040;-37
2021/03/27 03:25:56;;;;;;;39.08;18.42;;;;;;;3.09;61.94;100644.41;5033507;28;20170;-38
2021/03/27 03:28:27;;;;;;;38.72;17.60;;;;;;;3.06;63.30;100648.09;5032237;28;20025;-38
2021/03/27 03:30:55;;;;;;;34.20;17.30;;;;;;;2.77;63.87;100634.03;5032258;28;20172;-37
2021/03/27 03:33:43;;;;;;;34.40;17.67;;;;;;;2.80;64.32;100645.13;5033202;28;20030;-36
2021/03/27 03:36:35;;;;;;;32.75;17.45;;;;;;;2.72;63.57;100639.66;5032421;28;20029;-37
2021/03/27 03:39:07;;;;;;;34.70;18.13;;;;;;;2.61;64.34;100640.59;5009669;28;20042;-37
2021/03/27 03:41:51;;;;;;;33.83;17.65;;;;;;;2.41;63.81;100639.63;5031859;28;20021;-37
2021/03/27 03:44:27;;;;;;;34.78;16.88;;;;;;;2.41;63.20;100638.81;5033205;28;20118;-37
2021/03/27 03:47:08;;;;;;;36.88;17.23;;;;;;;2.45;64.20;100645.47;5031586;28;20116;-37
2021/03/27 03:50:07;;;;;;;27.63;15.05;;;;;;;2.62;63.15;100644.03;5031245;28;20021;-37
2021/03/27 03:52:54;;;;;;;33.58;16.02;;;;;;;2.48;64.99;100646.03;5032590;28;20405;-37
2021/03/27 03:55:36;;;;;;;30.70;14.80;;;;;;;2.57;63.86;100648.84;5032482;28;20025;-36
2021/03/27 03:58:27;;;;;;;30.38;15.18;;;;;;;2.70;63.29;100654.72;5031747;28;20457;-37
2021/03/27 04:01:23;;;;;;;28.10;14.90;;;;;;;2.65;63.21;100646.41;5032387;28;20100;-37
2021/03/27 04:04:08;;;;;;;29.05;15.00;;;;;;;2.57;63.62;100654.94;5031607;28;20432;-37
2021/03/27 04:06:36;;;;;;;31.52;13.80;;;;;;;2.50;63.44;100656.41;5031188;28;20128;-38
2021/03/27 04:09:22;;;;;;;27.30;13.55;;;;;;;2.52;63.62;100650.06;5015849;28;20096;-37
2021/03/27 04:11:54;;;;;;;25.95;12.45;;;;;;;2.15;63.27;100618.16;5051436;28;20055;-38
2021/03/27 04:14:35;;;;;;;26.60;12.50;;;;;;;2.23;63.37;100662.16;5052302;28;20081;-39
2021/03/27 04:17:20;;;;;;;;;;;;;;;2.39;63.46;100665.19;5051509;28;20036;-37
2021/03/27 04:19:52;;;;;;;23.15;11.68;;;;;;;2.41;62.83;100667.69;5001770;28;20337;-36
2021/03/27 04:22:27;;;;;;;29.73;11.90;;;;;;;2.54;62.87;100668.34;5022090;28;20074;-37
2021/03/27 04:25:08;;;;;;;23.48;11.35;;;;;;;2.64;62.36;100669.22;5051405;28;20028;-37
2021/03/27 04:27:38;;;;;;;25.60;12.23;;;;;;;2.42;63.48;100678.09;5030863;28;20017;-37
2021/03/27 04:30:19;;;;;;;26.58;12.57;;;;;;;2.55;63.15;100683.13;5015105;28;20391;-37
2021/03/27 04:32:54;;;;;;;27.95;14.15;;;;;;;2.66;64.21;100683.06;5049862;28;20086;-36
2021/03/27 04:35:24;;;;;;;35.03;15.50;;;;;;;2.70;63.72;100688.91;5050305;28;20440;-37
2021/03/27 04:38:08;;;;;;;30.90;15.27;;;;;;;2.97;62.63;100690.16;5050718;28;20446;-36
2021/03/27 04:40:53;;;;;;;35.60;15.38;;;;;;;3.25;62.53;100692.06;5051883;28;20028;-37
2021/03/27 04:43:28;;;;;;;34.70;17.00;;;;;;;3.44;61.46;100696.56;5050853;28;20534;-38
2021/03/27 04:46:19;;;;;;;33.92;14.93;;;;;;;3.44;60.97;100695.75;5034195;28;20526;-37
2021/03/27 04:49:10;;;;;;;47.95;22.58;;;;;;;3.72;61.46;100702.06;5047527;28;20036;-37
2021/03/27 04:52:03;;;;;;;67.70;30.15;;;;;;;4.00;59.61;100703.06;5050114;28;20028;-37
2021/03/27 04:55:02;;;;;;;41.47;20.58;;;;;;;4.09;58.21;100715.44;5051777;28;20060;-37
2021/03/27 04:58:05;;;;;;;24.83;13.65;;;;;;;4.22;57.94;100712.50;5016403;28;20021;-37
2021/03/27 05:00:51;;;;;;;31.65;14.73;;;;;;;4.46;57.24;100720.00;4998104;28;20037;-38
2021/03/27 05:03:19;;;;;;;35.38;15.07;;;;;;;5.00;55.40;100730.84;5031705;28;20025;-37
2021/03/27 05:05:55;;;;;;;29.10;14.32;;;;;;;5.20;55.48;100725.53;5029644;28;20083;-38
2021/03/27 05:08:39;;;;;;;32.25;14.68;;;;;;;5.22;55.85;100731.50;5031628;28;20033;-37
2021/03/27 05:11:29;;;;;;;31.70;14.18;;;;;;;5.51;54.69;100730.53;5049143;28;20052;-38
2021/03/27 05:14:15;;;;;;;31.30;14.63;;;;;;;5.52;54.59;100724.28;5050338;28;20029;-38
2021/03/27 05:16:41;;;;;;;31.58;14.15;;;;;;;5.86;53.60;100733.28;5040703;28;20041;-37
2021/03/27 05:19:17;;;;;;;32.58;14.38;;;;;;;5.96;52.49;100735.88;5033487;28;20083;-37
2021/03/27 05:22:04;;;;;;;35.63;16.05;;;;;;;7.22;50.68;100733.91;5042630;28;20028;-37
2021/03/27 05:24:48;;;;;;;29.98;14.55;;;;;;;7.22;50.24;100733.06;5033259;28;20036;-37
2021/03/27 05:27:23;;;;;;;27.60;13.82;;;;;;;7.21;49.77;100734.88;5051075;28;20025;-38
2021/03/27 05:29:54;;;;;;;30.35;14.18;;;;;;;7.25;49.29;100735.38;5050970;28;20025;-38
2021/03/27 05:32:35;;;;;;;34.58;15.05;;;;;;;7.32;48.72;100744.38;5050819;28;20029;-38
2021/03/27 05:35:02;;;;;;;;;;;;;;;7.45;49.18;100749.25;5051507;28;20112;-38
2021/03/27 05:37:38;;;;;;;29.00;15.63;;;;;;;7.61;48.84;100751.13;5049989;28;20339;-39
2021/03/27 05:40:25;;;;;;;28.20;15.00;;;;;;;8.65;45.03;100746.41;5033046;28;20025;-38
2021/03/27 05:42:56;;;;;;;35.17;16.25;;;;;;;8.36;45.89;100745.03;5050939;28;20019;-38
2021/03/27 05:45:39;;;;;;;28.52;14.13;;;;;;;8.66;46.23;100746.19;5049400;28;20021;-38
2021/03/27 05:48:58;;;;;;;23.48;12.45;;;;;;;8.74;45.20;100740.91;5033811;28;20481;-39
2021/03/27 05:51:42;;;;;;;19.48;11.50;;;;;;;8.93;45.14;100752.16;5028581;28;20531;-39
2021/03/27 05:54:45;;;;;;;19.10;10.93;;;;;;;9.35;44.71;100754.56;5050793;28;20032;-38
2021/03/27 05:57:41;;;;;;;20.98;11.18;;;;;;;9.33;43.52;100751.25;5049971;28;20033;-37
2021/03/27 06:00:31;;;;;;;17.17;10.40;;;;;;;10.00;42.31;100757.13;5050454;28;20497;-38
2021/03/27 06:03:30;;;;;;;22.17;11.33;;;;;;;10.23;42.39;100757.16;5049606;28;20040;-39
2021/03/27 06:06:20;;;;;;;20.55;11.40;;;;;;;10.30;41.77;100758.06;5051032;28;20473;-51
2021/03/27 06:08:45;;;;;;;17.90;11.02;;;;;;;10.47;40.41;100758.81;5050142;28;20029;-50
2021/03/27 06:11:27;;;;;;;19.00;10.77;;;;;;;10.79;40.06;100760.38;5050546;28;20036;-50
2021/03/27 06:14:11;;;;;;;16.02;10.13;;;;;;;11.51;40.90;100762.47;5049402;28;20103;-52
2021/03/27 06:16:57;;;;;;;18.30;10.77;;;;;;;11.64;38.45;100755.69;5050710;28;20035;-50
2021/03/27 06:19:43;;;;;;;20.90;11.27;;;;;;;11.53;38.22;100759.63;5053348;28;20040;-50
2021/03/27 06:22:09;;;;;;;25.52;12.07;;;;;;;11.45;38.98;100754.41;5053110;28;20433;-49
2021/03/27 06:24:44;;;;;;;21.27;11.05;;;;;;;11.89;38.08;100759.72;5054386;28;20033;-49
2021/03/27 06:27:09;;;;;;;25.42;12.45;;;;;;;11.99;38.42;100745.25;5052997;28;20104;-48
2021/03/27 06:30:11;;;;;;;16.90;11.25;;;;;;;12.27;38.13;100746.16;5054320;28;20535;-48
2021/03/27 06:33:14;;;;;;;20.20;11.55;;;;;;;12.61;37.77;100755.31;5034072;28;20025;-50
2021/03/27 06:36:15;;;;;;;18.15;11.48;;;;;;;12.40;37.28;100744.66;5034310;28;20064;-49
2021/03/27 06:39:18;;;;;;;18.45;11.90;;;;;;;12.89;37.19;100757.19;5032991;28;20052;-50
2021/03/27 06:42:21;;;;;;;19.42;11.98;;;;;;;13.41;35.96;100757.78;5035708;28;20405;-49
2021/03/27 06:45:02;;;;;;;21.00;12.32;;;;;;;13.17;36.11;100759.84;5033476;28;20021;-47
2021/03/27 06:47:49;;;;;;;24.95;12.88;;;;;;;13.16;35.54;100760.88;5031993;28;20449;-50
2021/03/27 06:50:35;;;;;;;21.38;13.02;;;;;;;13.56;35.60;100755.78;5033836;28;20037;-48
2021/03/27 06:53:27;;;;;;;19.60;12.15;;;;;;;13.71;35.42;100749.47;5032321;28;20044;-51
2021/03/27 06:56:11;;;;;;;19.20;11.85;;;;;;;13.81;35.18;100760.63;5051586;28;20029;-52
2021/03/27 06:58:54;;;;;;;21.33;12.65;;;;;;;13.80;34.67;100759.81;5053289;28;20036;-49
2021/03/27 07:01:58;;;;;;;20.10;12.60;;;;;;;14.04;35.26;100763.78;5051925;28;20057;-49
2021/03/27 07:04:26;;;;;;;21.25;11.90;;;;;;;13.94;34.39;100763.34;5051652;28;20037;-49
2021/03/27 07:07:02;;;;;;;19.15;11.55;;;;;;;13.93;34.46;100761.69;5052739;28;20480;-51
2021/03/27 07:09:27;;;;;;;20.23;12.50;;;;;;;14.11;34.48;100769.16;5052657;28;20025;-49
2021/03/27 07:12:20;;;;;;;21.25;12.45;;;;;;;14.02;34.69;100760.50;5052720;28;20100;-39
2021/03/27 07:15:23;;;;;;;21.05;12.35;;;;;;;13.85;35.58;100764.56;5052775;28;20024;-38
2021/03/27 07:18:31;;;;;;;23.42;13.00;;;;;;;14.12;34.99;100767.31;5052769;28;20021;-38
2021/03/27 07:21:24;;;;;;;23.75;12.73;;;;;;;14.43;34.73;100774.78;5018202;28;20032;-37
2021/03/27 07:24:14;;;;;;;19.45;12.48;;;;;;;14.63;35.30;100770.31;5051835;28;20037;-39
2021/03/27 07:27:06;;;;;;;31.53;18.13;;;;;;;14.66;33.92;100763.75;5052833;28;20103;-38
2021/03/27 07:29:41;;;;;;;25.92;15.82;;;;;;;14.78;33.85;100771.97;5049965;28;20102;-38
2021/03/27 07:32:25;;;;;;;25.30;13.25;;;;;;;14.92;34.08;100770.13;5051515;28;20469;-49
2021/03/27 07:35:05;;;;;;;21.30;12.85;;;;;;;15.19;34.62;100768.22;5051175;28;20029;-51
2021/03/27 07:37:39;;;;;;;23.13;13.23;;;;;;;15.44;34.37;100773.75;5049332;28;20025;-52
2021/03/27 07:40:08;;;;;;;20.98;12.48;;;;;;;15.35;33.96;100764.28;5050880;28;20040;-51
2021/03/27 07:42:58;;;;;;;24.65;13.52;;;;;;;15.90;33.37;100770.09;5041165;28;20037;-51
2021/03/27 07:45:30;;;;;;;22.65;13.68;;;;;;;15.53;32.54;100772.47;5039365;28;20067;-51
2021/03/27 07:48:30;;;;;;;23.25;15.27;;;;;;;15.71;33.43;100773.69;5031341;28;20038;-49
2021/03/27 07:51:20;;;;;;;21.08;13.00;;;;;;;15.87;33.66;100770.53;4999488;28;20037;-52
2021/03/27 07:54:13;;;;;;;19.15;11.73;;;;;;;16.53;31.12;100772.00;5032178;28;20037;-49
2021/03/27 07:57:13;;;;;;;22.15;12.65;;;;;;;16.42;32.43;100760.09;5030829;28;20108;-49
2021/03/27 07:59:39;;;;;;;19.48;12.30;;;;;;;16.83;30.98;100765.19;5031211;28;20025;-50
2021/03/27 08:02:42;;;;;;;22.20;13.40;;;;;;;16.56;32.03;100768.91;5032176;28;20030;-50
2021/03/27 08:05:38;;;;;;;21.15;12.63;;;;;;;16.49;31.71;100762.75;5032117;28;20037;-50
2021/03/27 08:08:37;;;;;;;21.65;12.30;;;;;;;16.71;31.96;100756.97;5031950;28;20042;-52
2021/03/27 08:11:24;;;;;;;19.98;11.48;;;;;;;16.96;30.89;100760.53;5031940;28;20026;-50
2021/03/27 08:14:26;;;;;;;18.85;11.68;;;;;;;17.07;30.25;100756.28;5031765;28;20500;-48
2021/03/27 08:17:20;;;;;;;19.23;12.60;;;;;;;17.49;29.86;100758.34;5031434;28;20021;-49
2021/03/27 08:19:57;;;;;;;19.23;12.35;;;;;;;17.65;30.06;100751.50;5031868;28;20100;-49
2021/03/27 08:22:48;;;;;;;27.85;16.42;;;;;;;17.42;28.84;100753.03;5040864;28;20051;-48
2021/03/27 08:25:19;;;;;;;;;;;;;;;17.25;29.73;100747.44;5048777;28;20028;-51
2021/03/27 08:28:15;;;;;;;26.92;14.63;;;;;;;17.26;29.79;100745.56;5045347;28;19978;-51
2021/03/27 08:30:59;;;;;;;21.85;13.13;;;;;;;17.26;29.35;100748.25;5038819;28;20025;-52
2021/03/27 08:34:02;;;;;;;23.33;13.10;;;;;;;16.53;30.46;100747.81;5051262;28;20117;-50
2021/03/27 08:36:46;;;;;;;18.48;12.27;;;;;;;16.96;30.52;100747.09;5050743;28;20029;-49
2021/03/27 08:39:42;;;;;;;21.15;12.82;;;;;;;17.20;31.05;100741.88;5033220;28;20525;-51
2021/03/27 08:42:13;;;;;;;22.88;12.57;;;;;;;17.41;30.04;100746.00;5042439;28;20040;-48
2021/03/27 08:45:03;;;;;;;21.73;13.38;;;;;;;17.51;29.32;100746.28;5050337;28;20029;-50
2021/03/27 08:47:59;;;;;;;21.98;12.02;;;;;;;17.46;30.14;100748.00;5050346;28;20102;-50
2021/03/27 08:51:06;;;;;;;19.67;12.50;;;;;;;17.42;29.47;100746.81;5050411;28;20033;-38
2021/03/27 08:54:25;;;;;;;21.25;12.95;;;;;;;17.70;29.44;100739.03;5042197;28;20120;-39
2021/03/27 08:57:03;;;;;;;20.08;11.77;;;;;;;17.91;28.84;100735.06;4988737;28;20261;-38
2021/03/27 08:59:53;;;;;;;17.92;11.65;;;;;;;18.17;28.57;100735.75;5048827;28;20094;-39
2021/03/27 09:02:54;;;;;;;20.63;11.52;;;;;;;18.01;28.22;100723.75;5050520;28;20020;-38
2021/03/27 09:05:44;;;;;;;21.73;12.27;;;;;;;17.23;29.66;100727.16;5049099;28;20500;-38
2021/03/27 09:08:24;;;;;;;20.05;11.15;;;;;;;17.34;28.45;100721.88;5050440;28;20044;-39
2021/03/27 09:10:59;;;;;;;48.53;32.42;;;;;;;17.68;28.64;100718.78;5030860;28;20402;-38
2021/03/27 09:14:01;;;;;;;18.33;11.30;;;;;;;16.92;29.85;100718.97;5029238;28;20041;-38
2021/03/27 09:16:42;;;;;;;;;;;;;;;17.59;28.51;100718.25;5029867;28;20100;-38
2021/03/27 09:19:20;;;;;;;20.85;11.23;;;;;;;17.89;28.74;100712.09;5030689;28;19963;-38
2021/03/27 09:22:24;;;;;;;19.48;11.77;;;;;;;17.95;28.76;100711.19;5033562;28;20139;-38
2021/03/27 09:25:27;;;;;;;17.95;11.52;;;;;;;18.18;28.16;100710.44;5040375;28;20028;-38
2021/03/27 09:28:02;;;;;;;18.20;11.00;;;;;;;18.05;27.79;100700.69;5021294;28;20033;-38
2021/03/27 09:30:48;;;;;;;16.67;10.57;;;;;;;18.08;27.93;100700.22;5050350;28;20075;-38
2021/03/27 09:33:23;;;;;;;16.80;10.43;;;;;;;17.56;28.08;100692.63;5049064;28;20078;-39
2021/03/27 09:36:06;;;;;;;19.20;11.57;;;;;;;17.48;27.63;100689.44;5045817;28;20112;-39
2021/03/27 09:38:34;;;;;;;16.25;10.88;;;;;;;17.12;28.47;100683.84;5014299;28;20037;-39
2021/03/27 09:41:17;;;;;;;17.52;10.57;;;;;;;16.52;28.42;100684.38;5030349;28;20405;-38
2021/03/27 09:44:01;;;;;;;16.23;10.40;;;;;;;17.03;28.76;100674.41;5030353;28;20065;-39
2021/03/27 09:46:54;;;;;;;20.52;11.05;;;;;;;16.58;28.83;100674.59;5029377;28;20041;-39
2021/03/27 09:49:38;;;;;;;16.13;10.30;;;;;;;16.65;28.50;100674.56;5030210;28;20036;-38
2021/03/27 09:52:17;;;;;;;19.75;10.75;;;;;;;16.80;28.31;100670.47;5030148;28;20029;-38
2021/03/27 09:54:50;;;;;;;19.92;10.32;;;;;;;16.65;28.50;100659.25;5030384;28;20412;-38
2021/03/27 09:57:56;;;;;;;16.75;10.38;;;;;;;16.92;28.87;100661.72;5029196;28;20022;-38
2021/03/27 10:00:40;;;;;;;19.73;10.02;;;;;;;16.93;28.54;100660.69;5030219;28;20029;-39
2021/03/27 10:03:30;;;;;;;16.20;10.50;;;;;;;17.64;28.32;100658.38;5030149;28;20039;-50
2021/03/27 10:06:34;;;;;;;21.30;11.90;;;;;;;17.09;29.54;100657.38;5028988;28;20048;-48
2021/03/27 10:09:10;;;;;;;19.48;11.45;;;;;;;17.69;28.24;100659.34;5034140;28;20094;-39
2021/03/27 10:11:37;;;;;;;15.65;10.50;;;;;;;17.97;27.47;100655.22;5049646;28;20113;-39
2021/03/27 10:14:22;;;;;;;15.15;10.15;;;;;;;17.36;28.89;100647.16;5048918;28;20550;-37
2021/03/27 10:16:54;;;;;;;18.48;11.25;;;;;;;17.67;28.13;100649.81;5050318;28;20038;-38
2021/03/27 10:19:19;;;;;;;15.85;10.80;;;;;;;18.21;26.95;100641.81;5032451;28;20119;-38
2021/03/27 10:22:23;;;;;;;17.88;11.20;;;;;;;18.01;27.84;100642.13;5047537;28;20211;-38
2021/03/27 10:25:11;;;;;;;16.35;9.63;;;;;;;18.07;27.31;100642.03;5029998;28;20056;-38
2021/03/27 10:28:14;;;;;;;15.15;10.18;;;;;;;18.47;26.73;100624.41;5018693;28;20045;-38
2021/03/27 10:30:56;;;;;;;16.20;10.00;;;;;;;18.72;26.32;100624.16;5030328;28;20057;-38
2021/03/27 10:33:40;;;;;;;15.45;9.75;;;;;;;18.73;26.27;100621.22;5014588;28;20493;-39
2021/03/27 10:36:29;;;;;;;16.05;10.65;;;;;;;19.23;25.96;100619.84;5030125;28;20033;-39
2021/03/27 10:39:17;;;;;;;15.27;9.75;;;;;;;17.82;27.11;100617.13;5028608;28;20120;-39
2021/03/27 10:41:49;;;;;;;15.00;9.95;;;;;;;17.96;27.27;100618.59;5027961;28;20104;-39
2021/03/27 10:44:41;;;;;;;14.98;10.07;;;;;;;18.21;27.27;100618.41;5027940;28;20128;-39
2021/03/27 10:47:18;;;;;;;17.95;9.63;;;;;;;18.60;27.18;100620.63;5028369;28;20026;-38
2021/03/27 10:50:19;;;;;;;15.00;9.88;;;;;;;18.59;27.03;100616.31;5029726;28;20025;-38
2021/03/27 10:53:10;;;;;;;16.40;10.15;;;;;;;18.52;26.73;100619.94;4978477;28;20417;-39
2021/03/27 10:56:23;;;;;;;14.60;9.02;;;;;;;18.43;27.15;100610.56;5028016;28;20021;-38
2021/03/27 10:58:58;;;;;;;15.25;9.98;;;;;;;18.64;27.03;100613.72;5015770;28;20033;-39
2021/03/27 11:01:42;;;;;;;18.15;10.25;;;;;;;18.98;26.63;100608.53;5029039;28;20021;-39
2021/03/27 11:04:07;;;;;;;14.82;9.57;;;;;;;18.82;27.00;100604.72;5030094;28;20110;-39
2021/03/27 11:06:54;;;;;;;16.20;9.85;;;;;;;19.12;26.11;100599.94;5031673;28;20045;-39
2021/03/27 11:09:50;;;;;;;15.27;9.73;;;;;;;19.11;26.59;100598.31;5031599;28;20029;-39
2021/03/27 11:12:41;;;;;;;18.20;10.18;;;;;;;18.99;28.28;100594.81;5031479;28;20196;-39
2021/03/27 11:15:12;;;;;;;;;;;;;;;18.92;26.13;100596.81;5015555;28;20034;-38
2021/03/27 11:17:38;;;;;;;;;;;;;;;18.44;26.08;100587.94;5033083;28;19916;-38
2021/03/27 11:20:21;;;;;;;14.82;9.52;;;;;;;18.94;25.72;100589.31;5032868;28;19909;-39
2021/03/27 11:23:18;;;;;;;13.10;9.35;;;;;;;19.24;25.64;100578.31;5044493;28;20029;-38
2021/03/27 11:26:05;;;;;;;18.05;9.27;;;;;;;19.39;25.99;100591.28;5038246;28;20025;-38
2021/03/27 11:28:37;;;;;;;16.08;10.00;;;;;;;19.10;26.27;100585.88;5052940;28;20362;-38
2021/03/27 11:31:27;;;;;;;13.73;9.73;;;;;;;19.30;25.49;100592.72;5052264;28;20040;-38
2021/03/27 11:34:04;;;;;;;15.80;10.68;;;;;;;19.14;25.71;100589.72;5051211;28;20032;-38
2021/03/27 11:36:37;;;;;;;22.08;15.13;;;;;;;19.00;26.43;100588.38;5050469;28;20025;-38
2021/03/27 11:39:26;;;;;;;51.05;33.00;;;;;;;19.27;25.27;100590.53;5034299;28;20488;-38
2021/03/27 11:42:30;;;;;;;16.88;9.90;;;;;;;19.35;25.55;100573.94;5043089;28;20523;-38
2021/03/27 11:45:17;;;;;;;17.10;9.93;;;;;;;19.43;26.30;100578.94;5020423;28;20115;-39
2021/03/27 11:47:59;;;;;;;13.07;9.07;;;;;;;19.49;25.45;100571.75;5033120;28;20090;-40
2021/03/27 11:50:40;;;;;;;13.10;9.18;;;;;;;19.14;26.32;100565.44;5050853;28;20060;-40
2021/03/27 11:53:30;;;;;;;15.70;8.95;;;;;;;18.84;25.66;100557.56;5050554;28;20115;-38
2021/03/27 11:56:16;;;;;;;18.77;11.60;;;;;;;18.96;26.07;100560.22;5051047;28;20032;-40
2021/03/27 12:01:38;;;;;;;14.88;8.73;;;;;;;19.02;25.58;100558.44;4995741;28;20029;-39
2021/03/27 12:04:12;;;;;;;19.10;11.20;;;;;;;19.09;25.96;100548.34;5034061;28;20488;-38
2021/03/27 12:06:58;;;;;;;21.00;11.52;;;;;;;19.35;25.61;100549.66;5051822;28;20049;-39
2021/03/27 12:09:29;;;;;;;15.43;9.32;;;;;;;19.31;25.53;100545.81;5051893;28;20029;-39
2021/03/27 12:12:22;;;;;;;12.98;9.40;;;;;;;19.46;25.79;100540.69;5034081;28;20017;-38
2021/03/27 12:14:53;;;;;;;15.32;10.00;;;;;;;19.27;26.28;100523.88;5051102;28;20032;-39
2021/03/27 12:17:25;;;;;;;14.88;9.75;;;;;;;18.67;26.79;100535.06;5049926;28;20029;-37
2021/03/27 12:20:20;;;;;;;13.90;9.32;;;;;;;18.53;27.02;100527.25;5050159;28;20087;-42
2021/03/27 12:22:48;;;;;;;14.65;9.45;;;;;;;18.78;26.18;100536.91;5038881;28;20116;-39
2021/03/27 12:25:22;;;;;;;16.15;9.50;;;;;;;18.53;25.86;100534.53;5045162;28;20020;-38
2021/03/27 12:28:12;;;;;;;15.07;9.02;;;;;;;17.76;27.39;100524.63;5051552;28;20078;-38
2021/03/27 12:30:50;;;;;;;15.25;9.48;;;;;;;18.09;26.67;100526.81;5050408;28;20021;-38